Gordon, Nebraska
Current Conditions -  °F | °C
As of 11:52 AM on Monday 20 Oct 2014 (Local Time) from KIEN Reporting Station
Clear Clear  
Wind Chill: 73°   Ceiling: Unl
Heat Index: 73°   Visibility: 10mi
Dew Point: 43°   Wind: 17mph
Humidity: 34%   Direction: 200°SSW
Pressure: 30.05"   Gusts: 23mph
Location:  42.8°N, 102.2°W
Report Text: KIEN 201752Z AUTO 20015G20KT 10SM CLR 23/06 A3005 RMK AO2 SLP167 T02280061 10228 20000 PWINO $
Loading
Personal Weather Stations






























Interactive Weather Map
Tropical Storm Tracking
New forecast layout! Learn more

10-Day Weather Forecast

Advertisements
Track Severe Weather on mobile